Time;durP1;ratioP1;P1;durP2;ratioP2;P2;SDS_P1;SDS_P2;PMS_P1;PMS_P2;Temp;Humidity;BMP_temperature;BMP_pressure;BME280_temperature;BME280_humidity;BME280_pressure;Samples;Min_cycle;Max_cycle;Signal;HPM_P1;HPM_P2
2021/01/15 00:01:21;;;;;;;18.23;10.00;;;;;;;-5.12;72.77;99999.71;120548;1151;104332;-83
2021/01/15 00:03:50;;;;;;;18.87;10.50;;;;;;;-5.11;72.90;100009.06;120512;1151;104918;-83
2021/01/15 00:06:21;;;;;;;18.10;9.90;;;;;;;-5.14;73.04;100003.90;120492;1151;104442;-83
2021/01/15 00:08:49;;;;;;;19.67;10.30;;;;;;;-5.12;73.07;100011.56;120492;1151;102595;-83
2021/01/15 00:11:27;;;;;;;17.43;9.37;;;;;;;-5.11;73.31;100015.83;120518;1151;104378;-83
2021/01/15 00:13:55;;;;;;;15.40;8.53;;;;;;;-5.11;72.96;100020.91;120545;1151;104417;-83
2021/01/15 00:16:27;;;;;;;18.07;9.67;;;;;;;-5.13;73.22;100028.50;120489;1151;104419;-83
2021/01/15 00:18:55;;;;;;;17.47;10.00;;;;;;;-5.13;73.80;100025.09;120476;1153;103051;-83
2021/01/15 00:21:32;;;;;;;19.07;10.07;;;;;;;-5.13;73.26;100027.64;120463;1151;104352;-84
2021/01/15 00:23:59;;;;;;;;;;;;;;;-5.15;73.01;100022.52;120539;1151;104866;-84
2021/01/15 00:26:29;;;;;;;18.73;10.13;;;;;;;-5.17;73.03;100026.70;120505;1151;104505;-83
2021/01/15 00:28:57;;;;;;;17.93;10.43;;;;;;;-5.20;72.63;100027.48;120523;1151;104449;-83
2021/01/15 00:31:33;;;;;;;21.13;10.60;;;;;;;-5.24;72.69;100027.34;120526;1151;104425;-84
2021/01/15 00:34:01;;;;;;;21.33;10.60;;;;;;;-5.29;72.93;100031.44;120430;1150;104374;-84
2021/01/15 00:36:28;;;;;;;18.57;10.23;;;;;;;-5.31;73.20;100039.03;120548;1151;104320;-84
2021/01/15 00:38:55;;;;;;;21.37;10.90;;;;;;;-5.32;73.51;100037.30;120521;1151;104418;-84
2021/01/15 00:41:23;;;;;;;17.57;10.77;;;;;;;-5.31;73.51;100044.11;120597;1151;103279;-83
2021/01/15 00:43:50;;;;;;;17.40;9.97;;;;;;;-5.31;73.16;100039.03;120530;1151;104430;-84
2021/01/15 00:46:27;;;;;;;17.90;10.47;;;;;;;-5.31;73.10;100045.80;120510;1151;104326;-83
2021/01/15 00:49:05;;;;;;;18.33;10.27;;;;;;;-5.42;72.32;100055.64;120608;1151;104348;-83
2021/01/15 00:51:37;;;;;;;16.17;9.80;;;;;;;-5.51;72.29;100050.31;120629;1151;104352;-83
2021/01/15 00:54:05;;;;;;;20.53;10.23;;;;;;;-5.58;72.33;100066.17;120674;1151;104463;-83
2021/01/15 00:56:34;;;;;;;19.73;10.97;;;;;;;-5.65;72.61;100067.69;120543;1151;104397;-83
2021/01/15 00:59:02;;;;;;;18.17;10.97;;;;;;;-5.72;72.06;100072.55;120536;1151;104191;-83
2021/01/15 01:01:37;;;;;;;18.50;10.50;;;;;;;-5.80;72.26;100065.54;120555;1151;104259;-84
2021/01/15 01:04:06;;;;;;;21.20;10.77;;;;;;;-5.86;72.17;100061.97;120579;1151;104407;-83
2021/01/15 01:06:33;;;;;;;21.97;11.07;;;;;;;-5.91;72.15;100061.00;120557;1151;104329;-83
2021/01/15 01:09:02;;;;;;;19.17;10.30;;;;;;;-6.01;72.25;100053.91;120566;1151;104473;-84
2021/01/15 01:11:31;;;;;;;19.63;9.83;;;;;;;-6.14;72.34;100068.74;120612;1150;104374;-83
2021/01/15 01:14:00;;;;;;;21.53;10.67;;;;;;;-6.20;72.44;100068.56;120581;1151;104407;-83
2021/01/15 01:16:27;;;;;;;18.90;9.70;;;;;;;-6.26;72.04;100068.38;120555;1151;104476;-82
2021/01/15 01:18:56;;;;;;;16.37;9.00;;;;;;;-6.29;72.61;100059.77;120599;1150;104423;-83
2021/01/15 01:21:24;;;;;;;19.40;9.17;;;;;;;-6.30;72.17;100056.38;120605;1151;104566;-83
2021/01/15 01:23:53;;;;;;;17.80;9.80;;;;;;;-6.30;72.09;100066.52;120581;1150;104461;-83
2021/01/15 01:26:20;;;;;;;16.47;9.13;;;;;;;-6.28;72.29;100062.39;120476;1151;104194;-83
2021/01/15 01:28:47;;;;;;;16.57;8.50;;;;;;;-6.31;72.09;100064.80;120541;1150;104497;-83
2021/01/15 01:31:17;;;;;;;15.65;8.18;;;;;;;-6.35;71.59;100067.20;120545;1151;104332;-83
2021/01/15 01:33:45;;;;;;;13.93;7.90;;;;;;;-6.41;71.51;100066.20;120522;1150;103360;-83
2021/01/15 01:36:12;;;;;;;18.17;8.53;;;;;;;-6.42;72.01;100072.09;120533;1151;104459;-83
2021/01/15 01:38:42;;;;;;;15.03;8.73;;;;;;;-6.45;71.87;100081.28;120507;1151;104413;-83
2021/01/15 01:41:10;;;;;;;16.67;8.40;;;;;;;-6.48;71.87;100088.77;120550;1151;104329;-83
2021/01/15 01:43:38;;;;;;;18.07;8.60;;;;;;;-6.50;72.08;100095.46;120501;1151;102672;-83
2021/01/15 01:46:08;;;;;;;17.37;9.03;;;;;;;-6.54;71.69;100101.25;120445;1151;104406;-83
2021/01/15 01:48:37;;;;;;;15.63;8.43;;;;;;;-6.55;71.82;100099.53;120522;1150;104451;-83
2021/01/15 01:51:06;;;;;;;18.07;9.10;;;;;;;-6.66;71.50;100093.22;120612;1151;104324;-83
2021/01/15 01:53:37;;;;;;;16.87;9.20;;;;;;;-6.67;71.84;100087.28;120535;1150;104356;-84
2021/01/15 01:56:06;;;;;;;18.80;9.90;;;;;;;-6.61;72.08;100094.26;120531;1151;104397;-83
2021/01/15 01:58:33;;;;;;;17.17;9.13;;;;;;;-6.60;72.22;100094.30;120582;1151;102406;-83
2021/01/15 02:01:06;;;;;;;16.30;8.77;;;;;;;-6.55;71.80;100099.53;120489;1151;104407;-84
2021/01/15 02:03:34;;;;;;;19.47;9.60;;;;;;;-6.55;72.29;100112.21;120566;1151;104407;-83
2021/01/15 02:06:04;;;;;;;20.90;9.50;;;;;;;-6.57;71.72;100098.61;120529;1151;104437;-84
2021/01/15 02:08:31;;;;;;;16.03;8.83;;;;;;;-6.62;72.12;100107.75;120512;1151;104374;-83
2021/01/15 02:11:14;;;;;;;19.10;10.37;;;;;;;-6.63;72.30;100118.71;120525;1151;104407;-83
2021/01/15 02:14:18;;;;;;;17.90;9.83;;;;;;;-6.60;72.15;100108.66;120602;1150;104339;-84
2021/01/15 02:16:52;;;;;;;24.43;10.53;;;;;;;-6.56;72.38;100125.70;120537;1151;104277;-83
2021/01/15 02:19:44;;;;;;;19.10;10.15;;;;;;;-6.58;71.79;100112.98;120514;1150;104489;-83
2021/01/15 02:22:52;;;;;;;17.20;9.87;;;;;;;-6.63;71.76;100122.11;120521;1151;104431;-81
2021/01/15 02:25:34;;;;;;;17.80;9.33;;;;;;;-6.72;71.52;100126.84;119826;1154;104532;-83
2021/01/15 02:28:39;;;;;;;17.73;9.67;;;;;;;-6.75;72.12;100131.82;120005;1154;104488;-83
2021/01/15 02:31:37;;;;;;;17.57;9.77;;;;;;;-6.77;72.03;100124.16;119863;1154;104444;-83
2021/01/15 02:34:26;;;;;;;17.53;9.70;;;;;;;-6.80;72.34;100136.73;119829;1154;104389;-83
2021/01/15 02:37:16;;;;;;;17.63;9.73;;;;;;;-6.81;72.19;100137.55;119814;1154;104336;-83
2021/01/15 02:40:11;;;;;;;17.67;9.00;;;;;;;-6.84;72.46;100139.95;119857;1154;104516;-84
2021/01/15 02:42:40;;;;;;;17.27;8.77;;;;;;;-6.83;72.61;100139.14;119803;1154;104914;-83
2021/01/15 02:45:12;;;;;;;20.23;10.47;;;;;;;-6.87;72.19;100133.91;119796;1154;104343;-84
2021/01/15 02:47:47;;;;;;;16.00;9.40;;;;;;;-6.83;72.51;100145.87;119781;1156;104348;-83
2021/01/15 02:50:23;;;;;;;17.67;8.93;;;;;;;-6.85;72.10;100143.30;119855;1154;104475;-82
2021/01/15 02:52:50;;;;;;;19.73;9.63;;;;;;;-6.90;72.42;100138.87;119803;1154;104382;-82
2021/01/15 02:55:18;;;;;;;17.67;8.97;;;;;;;-6.87;72.41;100133.91;119796;1154;104537;-83
2021/01/15 02:57:45;;;;;;;17.03;9.27;;;;;;;-6.88;72.46;100122.05;119853;1154;104336;-83
2021/01/15 03:00:15;;;;;;;18.50;9.13;;;;;;;-6.86;72.43;100133.10;119828;1154;105029;-84
2021/01/15 03:03:01;;;;;;;16.93;9.50;;;;;;;-6.83;72.47;100130.66;120359;1151;104430;-83
2021/01/15 03:06:01;;;;;;;17.30;8.48;;;;;;;-6.75;72.44;100130.14;120558;1151;104388;-83
2021/01/15 03:08:29;;;;;;;15.50;8.70;;;;;;;-6.70;72.45;100130.30;120531;1151;103464;-83
2021/01/15 03:11:00;;;;;;;17.53;9.13;;;;;;;-6.67;72.12;100127.00;120541;1151;104370;-83
2021/01/15 03:13:33;;;;;;;18.57;9.43;;;;;;;-6.64;72.19;100128.00;120558;1151;104480;-82
2021/01/15 03:16:03;;;;;;;19.83;9.93;;;;;;;-6.59;72.35;100121.40;120501;1151;102422;-82
2021/01/15 03:18:32;;;;;;;17.30;9.77;;;;;;;-6.54;72.54;100131.70;120596;1151;104417;-84
2021/01/15 03:21:03;;;;;;;19.23;9.63;;;;;;;-6.52;72.15;100128.39;120567;1151;104465;-83
2021/01/15 03:23:36;;;;;;;15.97;8.67;;;;;;;-6.48;72.00;100129.36;120528;1151;104314;-83
2021/01/15 03:26:04;;;;;;;16.77;9.00;;;;;;;-6.41;72.06;100128.77;120504;1151;104358;-83
2021/01/15 03:28:31;;;;;;;18.10;9.30;;;;;;;-6.34;72.36;100133.23;120453;1151;104446;-83
2021/01/15 03:30:59;;;;;;;17.17;8.78;;;;;;;-6.31;72.05;100123.17;120473;1151;104521;-83
2021/01/15 03:33:26;;;;;;;18.03;9.03;;;;;;;-6.23;71.73;100131.92;120507;1151;104400;-83
2021/01/15 03:35:53;;;;;;;17.07;9.00;;;;;;;-6.16;72.60;100132.97;120479;1151;104356;-84
2021/01/15 03:38:21;;;;;;;16.80;9.13;;;;;;;-6.13;72.02;100133.07;120479;1151;104381;-83
2021/01/15 03:40:48;;;;;;;15.87;8.33;;;;;;;-6.10;71.96;100134.05;120502;1151;101904;-84
2021/01/15 03:43:21;;;;;;;16.80;8.90;;;;;;;-6.07;71.41;100129.89;120484;1151;104362;-83
2021/01/15 03:45:50;;;;;;;15.47;8.93;;;;;;;-5.98;72.22;100122.55;120504;1151;103147;-83
2021/01/15 03:48:19;;;;;;;19.10;8.93;;;;;;;-5.88;72.00;100119.47;120494;1151;104359;-83
2021/01/15 03:50:46;;;;;;;20.40;9.63;;;;;;;-5.85;71.89;100130.58;120500;1151;101875;-84
2021/01/15 03:53:14;;;;;;;15.93;9.03;;;;;;;-5.75;71.87;100115.61;120425;1151;104434;-84
2021/01/15 03:55:42;;;;;;;19.65;9.50;;;;;;;-5.81;71.55;100114.62;120515;1151;104515;-83
2021/01/15 03:58:10;;;;;;;22.30;9.95;;;;;;;-5.91;70.72;100120.27;120453;1151;104514;-83
2021/01/15 04:00:38;;;;;;;21.50;9.50;;;;;;;-5.95;70.96;100122.64;120489;1151;104487;-83
2021/01/15 04:03:06;;;;;;;17.17;9.43;;;;;;;-6.01;71.32;100132.61;120466;1151;104366;-83
2021/01/15 04:05:34;;;;;;;18.37;9.53;;;;;;;-6.06;71.14;100123.99;120549;1154;104327;-83
2021/01/15 04:08:01;;;;;;;17.97;10.33;;;;;;;-6.08;71.61;100120.55;120564;1151;104447;-83
2021/01/15 04:10:29;;;;;;;20.30;9.87;;;;;;;-6.16;71.18;100131.30;120419;1152;103678;-83
2021/01/15 04:12:56;;;;;;;18.97;10.80;;;;;;;-6.21;71.60;100140.45;120559;1151;104332;-83
2021/01/15 04:15:24;;;;;;;17.83;9.80;;;;;;;-6.20;71.48;100134.55;120549;1151;104452;-83
2021/01/15 04:17:51;;;;;;;22.27;11.00;;;;;;;-6.21;71.21;100145.52;120562;1151;104502;-83
2021/01/15 04:20:18;;;;;;;19.23;10.53;;;;;;;-6.24;71.69;100127.66;120510;1151;104406;-83
2021/01/15 04:22:47;;;;;;;19.83;9.87;;;;;;;-6.22;71.47;100132.78;120544;1151;104403;-83
2021/01/15 04:25:15;;;;;;;19.43;10.23;;;;;;;-6.23;71.51;100137.00;120543;1151;104436;-83
2021/01/15 04:27:43;;;;;;;21.40;10.13;;;;;;;-6.26;71.66;100139.44;120489;1151;104298;-84
2021/01/15 04:30:13;;;;;;;17.93;9.43;;;;;;;-6.25;71.57;100138.63;120482;1151;104348;-84
2021/01/15 04:32:45;;;;;;;18.73;9.80;;;;;;;-6.33;71.23;100134.09;120548;1151;103667;-84
2021/01/15 04:35:18;;;;;;;16.80;9.53;;;;;;;-6.38;71.17;100146.63;120464;1151;102616;-84
2021/01/15 04:37:47;;;;;;;19.37;9.93;;;;;;;-6.37;71.55;100158.50;120462;1151;104224;-84
2021/01/15 04:40:16;;;;;;;21.63;10.93;;;;;;;-6.37;71.79;100145.81;120532;1151;104400;-84
2021/01/15 04:42:45;;;;;;;19.67;9.73;;;;;;;-6.32;71.91;100145.96;120483;1151;103134;-83
2021/01/15 04:45:16;;;;;;;18.57;10.67;;;;;;;-6.26;72.20;100146.19;120479;1151;104355;-83
2021/01/15 04:47:46;;;;;;;21.60;10.40;;;;;;;-6.30;71.95;100150.27;120519;1151;104322;-83
2021/01/15 04:50:15;;;;;;;24.07;11.73;;;;;;;-6.31;71.46;100184.08;120545;1151;104356;-83
2021/01/15 04:52:51;;;;;;;20.37;11.20;;;;;;;-6.43;71.82;100159.17;120484;1151;104359;-84
2021/01/15 04:55:24;;;;;;;20.43;10.40;;;;;;;-6.48;71.86;100175.02;120509;1151;104342;-84
2021/01/15 04:57:54;;;;;;;21.37;10.20;;;;;;;-6.54;72.29;100174.82;120518;1153;104329;-84
2021/01/15 05:00:26;;;;;;;21.13;10.53;;;;;;;-6.56;72.23;100163.77;120449;1151;104329;-83
2021/01/15 05:02:55;;;;;;;21.47;10.90;;;;;;;-6.59;72.04;100156.91;120524;1151;104276;-83
2021/01/15 05:05:24;;;;;;;18.40;9.87;;;;;;;-6.61;72.19;100156.00;120530;1151;104359;-83
2021/01/15 05:08:12;;;;;;;17.57;9.23;;;;;;;-6.66;72.36;100156.63;120515;1151;104402;-84
2021/01/15 05:10:45;;;;;;;19.77;9.80;;;;;;;-6.71;72.49;100146.33;120491;1151;104470;-84
2021/01/15 05:13:14;;;;;;;21.00;10.07;;;;;;;-6.75;72.49;100152.97;120531;1151;104465;-84
2021/01/15 05:15:46;;;;;;;19.47;9.67;;;;;;;-6.77;72.73;100139.38;120535;1151;104495;-83
2021/01/15 05:18:16;;;;;;;23.33;11.17;;;;;;;-6.82;72.55;100135.82;120520;1151;104337;-84
2021/01/15 05:20:44;;;;;;;21.00;9.77;;;;;;;-6.82;72.65;100140.89;120545;1151;104442;-84
2021/01/15 05:23:11;;;;;;;21.70;10.07;;;;;;;-6.74;72.96;100153.83;120542;1151;104353;-83
2021/01/15 05:25:44;;;;;;;21.27;9.93;;;;;;;-6.71;72.95;100146.33;120474;1151;104579;-83
2021/01/15 05:28:14;;;;;;;19.37;10.50;;;;;;;-6.72;72.79;100150.53;120438;1151;104381;-84
2021/01/15 05:30:42;;;;;;;20.03;10.73;;;;;;;-6.65;72.93;100158.34;120463;1151;104308;-83
2021/01/15 05:33:17;;;;;;;24.80;11.63;;;;;;;-6.66;73.06;100154.09;120544;1151;104353;-84
2021/01/15 05:35:53;;;;;;;21.27;11.03;;;;;;;-6.65;72.81;100155.81;120463;1151;104428;-82
2021/01/15 05:38:22;;;;;;;19.87;10.67;;;;;;;-6.65;72.86;100160.89;120536;1151;104332;-83
2021/01/15 05:40:55;;;;;;;22.37;11.67;;;;;;;-6.61;73.11;100157.67;120478;1151;104490;-83
2021/01/15 05:43:24;;;;;;;21.33;10.87;;;;;;;-6.53;73.37;100144.42;120516;1151;104354;-83
2021/01/15 05:46:14;;;;;;;24.30;11.47;;;;;;;-6.56;72.71;100148.54;120563;1151;103507;-83
2021/01/15 05:48:46;;;;;;;23.23;11.00;;;;;;;-6.56;73.14;100161.22;120553;1151;105649;-83
2021/01/15 05:51:31;;;;;;;21.10;10.93;;;;;;;-6.50;72.78;100147.06;120525;1151;104444;-83
2021/01/15 05:54:01;;;;;;;23.57;11.47;;;;;;;-6.47;73.08;100158.98;120593;1151;104747;-83
2021/01/15 05:56:41;;;;;;;22.30;11.13;;;;;;;-6.49;72.78;100158.08;120551;1151;103167;-83
2021/01/15 05:59:18;;;;;;;24.73;12.33;;;;;;;-6.54;72.45;100174.82;120484;1151;104374;-84
2021/01/15 06:01:50;;;;;;;21.03;10.77;;;;;;;-6.62;72.84;100174.56;120479;1151;104496;-84
2021/01/15 06:04:33;;;;;;;21.37;11.57;;;;;;;-6.62;73.21;100181.31;120538;1151;104484;-83
2021/01/15 06:07:13;;;;;;;20.60;10.70;;;;;;;-6.53;73.29;100194.30;120545;1151;104431;-83
2021/01/15 06:09:44;;;;;;;22.80;11.23;;;;;;;-6.45;73.29;100186.17;120548;1151;104465;-83
2021/01/15 06:12:14;;;;;;;21.20;10.77;;;;;;;-6.41;73.18;100180.38;120533;1151;103201;-83
2021/01/15 06:14:57;;;;;;;18.00;9.97;;;;;;;-6.37;73.21;100176.27;120502;1151;104301;-83
2021/01/15 06:17:25;;;;;;;20.27;10.43;;;;;;;-6.36;73.15;100180.53;120484;1151;104211;-83
2021/01/15 06:19:59;;;;;;;18.80;9.47;;;;;;;-6.36;72.85;100180.53;120616;1151;104339;-83
2021/01/15 06:22:46;;;;;;;19.47;10.03;;;;;;;-6.30;73.20;100190.88;120536;1150;104791;-83
2021/01/15 06:25:21;;;;;;;24.65;11.55;;;;;;;-6.24;72.87;100186.03;120552;1151;104307;-83
2021/01/15 06:27:55;;;;;;;17.63;10.37;;;;;;;-6.17;73.19;100187.95;120515;1151;104406;-84
2021/01/15 06:30:28;;;;;;;19.90;10.30;;;;;;;-6.13;72.92;100187.24;120502;1151;104378;-82
2021/01/15 06:33:08;;;;;;;20.60;11.23;;;;;;;-6.13;72.79;100182.16;120486;1150;104338;-83
2021/01/15 06:35:39;;;;;;;23.37;11.93;;;;;;;-6.12;72.48;100181.34;120535;1151;104335;-83
2021/01/15 06:38:08;;;;;;;25.20;12.47;;;;;;;-6.06;72.76;100184.92;120536;1151;104442;-84
2021/01/15 06:40:36;;;;;;;24.33;12.40;;;;;;;-6.08;72.59;100189.95;120490;1151;104425;-83
2021/01/15 06:43:08;;;;;;;22.63;11.97;;;;;;;-6.07;72.91;100204.38;120503;1151;104406;-83
2021/01/15 06:45:47;;;;;;;25.67;12.77;;;;;;;-6.10;72.91;100205.14;120517;1151;104420;-83
2021/01/15 06:48:21;;;;;;;23.83;11.80;;;;;;;-6.12;72.61;100216.89;120556;1151;104387;-83
2021/01/15 06:50:51;;;;;;;25.30;12.50;;;;;;;-6.08;72.93;100212.80;120555;1151;104457;-83
2021/01/15 06:53:22;;;;;;;67.53;27.23;;;;;;;-6.04;72.77;100219.70;120552;1151;104443;-84
2021/01/15 06:55:51;;;;;;;26.67;13.70;;;;;;;-6.01;73.24;100226.56;120494;1151;104514;-84
2021/01/15 06:58:29;;;;;;;26.37;13.77;;;;;;;-6.01;73.01;100226.56;120566;1151;104428;-84
2021/01/15 07:01:15;;;;;;;25.20;13.23;;;;;;;-6.01;72.77;100239.25;120530;1151;104350;-84
2021/01/15 07:04:02;;;;;;;25.27;12.73;;;;;;;-5.99;72.66;100237.63;120581;1151;104441;-84
2021/01/15 07:06:34;;;;;;;22.33;11.67;;;;;;;-5.98;72.90;100241.89;120536;1151;102843;-84
2021/01/15 07:09:04;;;;;;;23.83;12.90;;;;;;;-5.95;72.62;100240.31;120531;1151;104355;-84
2021/01/15 07:11:33;;;;;;;22.50;11.77;;;;;;;-5.91;73.40;100233.69;120550;1151;104478;-84
2021/01/15 07:14:04;;;;;;;24.33;11.47;;;;;;;-5.84;73.27;100235.58;120512;1151;104386;-84
2021/01/15 07:16:39;;;;;;;20.97;10.23;;;;;;;-5.84;72.83;100212.72;120492;1151;104420;-83
2021/01/15 07:19:06;;;;;;;20.33;10.47;;;;;;;-5.82;72.59;100226.33;120528;1151;104415;-83
2021/01/15 07:21:37;;;;;;;20.03;10.67;;;;;;;-5.78;72.50;100220.52;120498;1151;103210;-83
2021/01/15 07:24:09;;;;;;;19.00;9.65;;;;;;;-5.73;72.86;100216.48;120513;1151;104465;-83
2021/01/15 07:26:40;;;;;;;18.43;10.20;;;;;;;-5.69;72.14;100214.90;120539;1151;104230;-83
2021/01/15 07:29:18;;;;;;;18.93;10.63;;;;;;;-5.53;72.86;100217.98;120482;1151;104463;-83
2021/01/15 07:31:50;;;;;;;20.70;10.87;;;;;;;-5.49;72.36;100212.17;120479;1151;104415;-83
2021/01/15 07:34:22;;;;;;;23.23;11.10;;;;;;;-5.43;72.41;100210.63;120445;1151;104386;-83
2021/01/15 07:36:50;;;;;;;24.20;12.23;;;;;;;-5.36;72.94;100217.64;120497;1150;103202;-83
2021/01/15 07:39:24;;;;;;;24.00;13.33;;;;;;;-5.29;72.37;100215.33;120524;1152;104385;-83
2021/01/15 07:41:53;;;;;;;28.03;14.53;;;;;;;-5.29;72.06;100214.47;120515;1151;104382;-83
2021/01/15 07:44:21;;;;;;;28.03;14.40;;;;;;;-5.30;72.36;100212.74;120551;1150;104643;-83
2021/01/15 07:46:53;;;;;;;25.82;14.03;;;;;;;-5.37;72.21;100215.92;120454;1151;104548;-83
2021/01/15 07:49:21;;;;;;;31.53;15.07;;;;;;;-5.41;71.46;100214.94;120532;1151;104523;-83
2021/01/15 07:52:04;;;;;;;25.90;13.87;;;;;;;-5.44;71.94;100219.07;120520;1151;104335;-83
2021/01/15 07:54:46;;;;;;;27.50;14.50;;;;;;;-5.43;72.33;100214.03;120523;1151;104417;-84
2021/01/15 07:57:14;;;;;;;25.83;12.70;;;;;;;-5.45;71.88;100212.27;120681;1151;104313;-83
2021/01/15 07:59:41;;;;;;;24.23;11.87;;;;;;;-5.48;71.79;100213.03;120499;1151;104435;-83
2021/01/15 08:02:09;;;;;;;24.37;13.07;;;;;;;-5.50;71.86;100210.45;120584;1152;104417;-84
2021/01/15 08:04:36;;;;;;;24.60;13.23;;;;;;;-5.52;71.39;100212.08;120541;1150;104320;-83
2021/01/15 08:07:26;;;;;;;20.57;11.97;;;;;;;-5.55;71.68;100208.59;120535;1151;104493;-83
2021/01/15 08:09:54;;;;;;;27.47;12.70;;;;;;;-5.57;71.43;100211.05;120524;1151;104419;-83
2021/01/15 08:12:23;;;;;;;23.07;12.50;;;;;;;-5.56;71.86;100210.27;120446;1151;104768;-84
2021/01/15 08:14:50;;;;;;;28.07;14.37;;;;;;;-5.51;72.23;100205.31;120578;1151;104466;-83
2021/01/15 08:17:26;;;;;;;25.33;12.57;;;;;;;-5.53;71.71;100196.79;120607;1151;104851;-84
2021/01/15 08:19:54;;;;;;;25.17;13.00;;;;;;;-5.53;72.10;100206.95;120608;1151;103772;-84
2021/01/15 08:22:22;;;;;;;25.93;12.37;;;;;;;-5.54;71.83;100203.55;120560;1151;104380;-84
2021/01/15 08:24:50;;;;;;;25.07;13.80;;;;;;;-5.52;72.03;100198.52;120552;1151;104287;-84
2021/01/15 08:27:22;;;;;;;24.80;13.37;;;;;;;-5.50;72.10;100207.91;120493;1151;104330;-84
2021/01/15 08:29:50;;;;;;;24.60;13.47;;;;;;;-5.49;72.05;100199.47;120554;1150;104444;-84
2021/01/15 08:32:17;;;;;;;23.40;12.47;;;;;;;-5.44;71.88;100208.91;120608;1151;104351;-83
2021/01/15 08:34:45;;;;;;;22.30;12.53;;;;;;;-5.48;72.04;100208.81;120616;1151;103335;-83
2021/01/15 08:37:16;;;;;;;23.87;11.87;;;;;;;-5.49;71.84;100207.09;120602;1151;102611;-83
2021/01/15 08:39:54;;;;;;;24.67;13.10;;;;;;;-5.48;72.49;100213.89;120632;1151;104345;-83
2021/01/15 08:42:22;;;;;;;24.47;12.77;;;;;;;-5.45;72.09;100213.13;120592;1150;104463;-83
2021/01/15 08:44:51;;;;;;;25.07;14.13;;;;;;;-5.43;71.75;100210.63;120636;1151;104838;-83
2021/01/15 08:47:20;;;;;;;28.27;13.63;;;;;;;-5.40;71.64;100210.72;120546;1150;104485;-83
2021/01/15 08:49:53;;;;;;;24.73;12.23;;;;;;;-5.43;71.99;100214.03;120518;1151;104333;-82
2021/01/15 08:52:28;;;;;;;25.87;13.93;;;;;;;-5.36;71.79;100210.89;120594;1150;104341;-83
2021/01/15 08:54:59;;;;;;;22.63;12.80;;;;;;;-5.27;72.43;100217.91;120506;1151;104315;-83
2021/01/15 08:57:30;;;;;;;27.17;13.73;;;;;;;-5.28;71.94;100216.19;120587;1151;104380;-83
2021/01/15 09:00:12;;;;;;;25.77;12.93;;;;;;;-5.27;71.77;100217.91;120554;1151;103722;-84
2021/01/15 09:02:42;;;;;;;28.60;14.40;;;;;;;-5.23;72.11;100224.81;120433;1151;104324;-83
2021/01/15 09:05:20;;;;;;;27.70;13.85;;;;;;;-5.18;72.21;100223.30;120537;1151;104922;-83
2021/01/15 09:07:49;;;;;;;23.95;12.78;;;;;;;-5.15;72.47;100228.47;120510;1151;104403;-83
2021/01/15 09:10:18;;;;;;;27.53;14.60;;;;;;;-5.14;72.03;100220.02;120477;1151;104478;-83
2021/01/15 09:12:48;;;;;;;23.90;13.13;;;;;;;-5.09;71.59;100218.47;120574;1151;104450;-83
2021/01/15 09:15:21;;;;;;;26.50;14.93;;;;;;;-5.08;71.71;100225.28;120495;1151;104321;-83
2021/01/15 09:17:48;;;;;;;28.27;15.67;;;;;;;-5.06;71.83;100223.64;120561;1151;104560;-84
2021/01/15 09:20:17;;;;;;;32.00;16.63;;;;;;;-5.00;72.34;100228.07;120485;1150;104474;-84
2021/01/15 09:22:45;;;;;;;29.50;16.40;;;;;;;-4.95;72.05;100237.55;120473;1151;104428;-84
2021/01/15 09:25:14;;;;;;;32.10;17.43;;;;;;;-4.91;71.72;100231.73;120565;1151;104447;-84
2021/01/15 09:27:43;;;;;;;36.00;16.73;;;;;;;-4.87;71.52;100230.14;120466;1151;104383;-84
2021/01/15 09:30:13;;;;;;;28.40;15.87;;;;;;;-4.88;71.58;100224.19;120527;1151;102386;-84
2021/01/15 09:32:44;;;;;;;31.00;17.23;;;;;;;-4.94;71.37;100223.16;120389;1151;104424;-84
2021/01/15 09:35:13;;;;;;;31.03;17.10;;;;;;;-4.95;71.45;100217.20;120456;1151;104417;-83
2021/01/15 09:37:40;;;;;;;30.43;17.87;;;;;;;-4.92;71.21;100222.38;120465;1150;104474;-83
2021/01/15 09:40:09;;;;;;;32.53;18.83;;;;;;;-4.89;71.58;100227.55;120507;1151;104477;-83
2021/01/15 09:42:38;;;;;;;34.17;17.93;;;;;;;-4.86;71.43;100221.69;120405;1151;104570;-84
2021/01/15 09:45:06;;;;;;;36.97;19.07;;;;;;;-4.80;71.82;100221.89;120459;1151;104458;-83
2021/01/15 09:47:34;;;;;;;35.63;18.73;;;;;;;-4.74;71.60;100216.10;120522;1153;101889;-83
2021/01/15 09:50:03;;;;;;;33.67;18.77;;;;;;;-4.69;72.06;100215.41;120512;1151;102788;-83
2021/01/15 09:52:37;;;;;;;28.67;16.93;;;;;;;-4.66;71.01;100209.56;120399;1151;104447;-83
2021/01/15 09:55:05;;;;;;;36.73;17.60;;;;;;;-4.64;71.32;100203.70;120518;1151;104397;-83
2021/01/15 09:57:42;;;;;;;31.13;16.80;;;;;;;-4.61;70.96;100202.91;120505;1151;104332;-82
2021/01/15 10:00:11;;;;;;;35.30;18.10;;;;;;;-4.58;71.30;100198.77;120449;1151;102567;-83
2021/01/15 10:02:38;;;;;;;37.47;18.77;;;;;;;-4.52;71.19;100195.52;120437;1151;104449;-83
2021/01/15 10:05:06;;;;;;;32.47;18.80;;;;;;;-4.49;71.11;100199.83;120423;1151;104387;-83
2021/01/15 10:07:34;;;;;;;39.57;20.87;;;;;;;-4.46;71.34;100193.16;120425;1151;104325;-82
2021/01/15 10:10:01;;;;;;;36.10;19.60;;;;;;;-4.40;70.72;100188.22;120404;1151;104358;-83
2021/01/15 10:12:28;;;;;;;34.43;18.27;;;;;;;-4.39;71.12;100182.30;120475;1151;102568;-83
2021/01/15 10:14:55;;;;;;;30.80;16.90;;;;;;;-4.36;70.73;100166.25;120511;1151;104517;-83
2021/01/15 10:17:23;;;;;;;30.70;15.95;;;;;;;-4.35;70.89;100150.14;120453;1151;104393;-84
2021/01/15 10:19:51;;;;;;;37.65;19.00;;;;;;;-4.34;69.75;100116.23;120533;1151;104349;-83
2021/01/15 10:22:18;;;;;;;36.33;18.93;;;;;;;-4.30;69.38;100113.82;120473;1151;104337;-84
2021/01/15 10:24:45;;;;;;;39.25;19.85;;;;;;;-4.27;69.50;100113.89;120511;1151;104319;-81
2021/01/15 10:27:12;;;;;;;39.15;18.40;;;;;;;-4.20;69.49;100119.13;120475;1151;104255;-83
2021/01/15 10:29:39;;;;;;;34.37;17.60;;;;;;;-4.20;69.47;100129.31;120525;1151;104449;-83
2021/01/15 10:32:06;;;;;;;32.13;15.53;;;;;;;-4.09;69.50;100122.81;120412;1151;104388;-82
2021/01/15 10:34:33;;;;;;;32.87;17.17;;;;;;;-4.07;69.72;100127.12;120423;1151;104372;-81
2021/01/15 10:37:00;;;;;;;29.27;15.30;;;;;;;-3.96;70.03;100125.67;120469;1151;102657;-82
2021/01/15 10:39:28;;;;;;;30.07;15.83;;;;;;;-3.88;69.84;100128.42;120463;1151;104372;-82
2021/01/15 10:41:55;;;;;;;32.67;16.43;;;;;;;-3.85;69.34;100138.68;120473;1151;104327;-82
2021/01/15 10:44:27;;;;;;;31.50;16.33;;;;;;;-3.80;68.91;100148.97;120448;1151;104440;-82
2021/01/15 10:46:54;;;;;;;33.00;16.90;;;;;;;-3.78;69.36;100150.73;120496;1151;104496;-82
2021/01/15 10:49:23;;;;;;;31.63;16.87;;;;;;;-3.71;68.97;100155.16;120468;1151;104432;-82
2021/01/15 10:51:56;;;;;;;34.10;17.33;;;;;;;-3.71;67.96;100142.42;120439;1150;103382;-83
2021/01/15 10:54:23;;;;;;;31.47;17.47;;;;;;;-3.71;68.48;100157.72;120486;1151;104436;-82
2021/01/15 10:56:52;;;;;;;32.67;16.67;;;;;;;-3.71;68.51;100162.81;120455;1151;104338;-83
2021/01/15 10:59:21;;;;;;;30.00;16.13;;;;;;;-3.73;68.90;100164.47;120482;1151;104432;-83
2021/01/15 11:01:52;;;;;;;34.37;17.27;;;;;;;-3.72;68.63;100165.33;120450;1151;103155;-83
2021/01/15 11:04:24;;;;;;;31.48;16.70;;;;;;;-3.72;68.16;100155.99;120448;1150;104358;-83
2021/01/15 11:06:54;;;;;;;30.87;17.10;;;;;;;-3.78;68.43;100150.73;120421;1151;104365;-83
2021/01/15 11:09:24;;;;;;;33.33;17.30;;;;;;;-3.85;68.52;100148.02;120517;1151;103337;-83
2021/01/15 11:12:04;;;;;;;34.45;16.65;;;;;;;-3.90;68.71;100145.36;120439;1151;103024;-83
2021/01/15 11:14:31;;;;;;;30.30;17.03;;;;;;;-3.89;68.49;100124.16;120453;1151;104354;-83
2021/01/15 11:16:58;;;;;;;31.73;16.93;;;;;;;-3.93;67.83;100130.01;120413;1150;104915;-83